This is the latest recevied weather packets stored in our database for station/object KV9E. If no packets are shown the sender has not sent any weather packets the latest 10 day(s).
| Time | Temp. | Humidity | Pressure | Rain* | Wind** | Luminosity | Snow |
|---|---|---|---|---|---|---|---|
| 1788565513 | 29.44° C | 70% | 1015.6 hPa | 0 mm | - | 14 W/m² | - |
| 1788565209 | 29.44° C | 70% | 1015.4 hPa | 0 mm | - | 16 W/m² | - |
| 1788564904 | 29.44° C | 70% | 1015.4 hPa | 0 mm | - | 17 W/m² | - |
| 1788564600 | 29.44° C | 70% | 1015.3 hPa | 0 mm | - | 18 W/m² | - |
| 1788564296 | 30° C | 71% | 1015.5 hPa | 0 mm | - | 20 W/m² | - |
| 1788563993 | 30° C | 70% | 1015.2 hPa | 0 mm | - | 25 W/m² | - |
| 1788563688 | 30° C | 70% | 1015.3 hPa | 0 mm | - | 26 W/m² | - |
| 1788563383 | 30° C | 70% | 1015.2 hPa | 0 mm | - | 32 W/m² | - |
| 1788563082 | 30.56° C | 69% | 1015.4 hPa | 0 mm | - | 37 W/m² | - |
| 1788562777 | 30.56° C | 69% | 1015.3 hPa | 0 mm | - | 47 W/m² | - |
| 1788562474 | 31.11° C | 68% | 1015.4 hPa | 0 mm | - | 51 W/m² | - |
| 1788562169 | 31.11° C | 67% | 1015.1 hPa | 0 mm | - | 58 W/m² | - |
| 1788561865 | 31.11° C | 68% | 1015 hPa | 0 mm | - | 67 W/m² | - |
| 1788561564 | 31.67° C | 64% | 1015 hPa | 0 mm | - | 124 W/m² | - |
| 1788561264 | 31.67° C | 64% | 1014.9 hPa | 0 mm | - | 133 W/m² | - |
| 1788560960 | 31.67° C | 63% | 1015 hPa | 0 mm | - | 143 W/m² | - |
| 1788560655 | 31.67° C | 64% | 1015 hPa | 0 mm | - | 150 W/m² | - |
| 1788560355 | 31.11° C | 65% | 1014.9 hPa | 0 mm | - | 156 W/m² | - |
| 1788560049 | 31.11° C | 64% | 1015 hPa | 0 mm | - | 150 W/m² | - |
| 1788559745 | 30.56° C | 68% | 1015 hPa | 0 mm | - | 161 W/m² | - |
| 1788559444 | 31.11° C | 65% | 1014.8 hPa | 0 mm | - | 54 W/m² | - |
| 1788559140 | 31.67° C | 62% | 1015 hPa | 0 mm | - | 57 W/m² | - |
| 1788558834 | 32.22° C | 60% | 1015 hPa | 0 mm | - | 179 W/m² | - |
| 1788558530 | 31.67° C | 61% | 1014.9 hPa | 0 mm | - | 189 W/m² | - |
| 1788558226 | 32.22° C | 61% | 1015 hPa | 0 mm | - | 219 W/m² | - |
* Rain latest hour (hover to see other rain measurements)
** Current wind speed in m/s (hover to see current wind gust speed)